Bookmark and Share
Track history (hours):
 

Super Servant 4

Last reported at 2014-Apr-20 08:31 UTC. Time now 2014-Apr-20 08:52 UTC.
Position N 36°06' W 005°25'.

Length 139 m; beam 32 m.

Type: Cargo ship. MMSI: 306157000.

NotesDate/timePositionNaut miles runAvg speedWind from/ knotsBaromVisibWave heightAir tempDewpointWater temp
2014-Apr-20 08:31N 36°06' W 005°25'0 0.0
2014-Apr-20 07:28N 36°06' W 005°25'0 0.3
2014-Apr-20 06:33N 36°06' W 005°24'6 5.8
2014-Apr-20 05:33N 36°06' W 005°17'1 1.0
2014-Apr-20 04:33N 36°06' W 005°16'1211.6
2014-Apr-20 03:32N 36°08' W 005°01'19310.0
2014-Apr-19 08:19N 37°00' W 001°11'911.2
2014-Apr-19 07:32N 37°05' W 001°02'3511.5
2014-Apr-19 04:31N 37°25' W 000°26'1515.8
2014-Apr-19 03:32N 37°34' W 000°10'19 9.4
2014-Apr-19 01:33N 37°45' E 000°09'2611.3
2014-Apr-18 23:18N 37°60' E 000°35'811.1
2014-Apr-18 22:33N 38°05' E 000°44'1211.4
2014-Apr-18 21:31N 38°12' E 000°56'1111.6
2014-Apr-18 20:32N 38°18' E 001°08'1111.6
2014-Apr-18 19:33N 38°25' E 001°20'1311.2
2014-Apr-18 18:23N 38°32' E 001°33'1311.5
2014-Apr-18 17:14N 38°42' E 001°45'810.9
2014-Apr-18 16:32N 38°48' E 001°52'1111.4
2014-Apr-18 15:33N 38°56' E 002°01'1211.5
2014-Apr-18 14:33N 39°05' E 002°10'1111.2
2014-Apr-18 13:33N 39°13' E 002°20'1211.6
2014-Apr-18 12:33N 39°21' E 002°31'10 9.6
2014-Apr-18 11:32N 39°30' E 002°36'3 3.3
2014-Apr-18 10:32N 39°33' E 002°38'0 0.1
2014-Apr-18 09:32N 39°33' E 002°38'0 0.0
2014-Apr-18 08:32N 39°33' E 002°38'0 0.0
2014-Apr-18 07:32N 39°33' E 002°38'0 0.0
2014-Apr-18 06:32N 39°33' E 002°38'0 0.0
2014-Apr-18 05:32N 39°33' E 002°38'0 0.0
2014-Apr-18 04:32N 39°33' E 002°38'0 0.0
2014-Apr-18 03:32N 39°33' E 002°38'0 0.0
2014-Apr-18 02:32N 39°33' E 002°38'0 0.0
2014-Apr-18 01:32N 39°33' E 002°38'0 0.0
2014-Apr-18 00:32N 39°33' E 002°38'0 0.0
2014-Apr-17 23:32N 39°33' E 002°38'0 0.0
2014-Apr-17 22:32N 39°33' E 002°38'0 0.0
2014-Apr-17 21:32N 39°33' E 002°38'0 0.0
2014-Apr-17 20:32N 39°33' E 002°38'0 0.0
2014-Apr-17 19:29N 39°33' E 002°38'0 0.0
2014-Apr-17 17:32N 39°33' E 002°38'0 0.0
2014-Apr-17 16:08N 39°33' E 002°38'0 0.0
2014-Apr-17 15:32N 39°33' E 002°38'0 0.0
2014-Apr-17 14:32N 39°33' E 002°38'0 0.0
2014-Apr-17 13:32N 39°33' E 002°38'0 0.0
2014-Apr-17 12:32N 39°33' E 002°38'0 0.0
2014-Apr-17 11:32N 39°33' E 002°38'0 0.0
2014-Apr-17 10:32N 39°33' E 002°38'0 0.0
2014-Apr-17 09:32N 39°33' E 002°38'0 0.0
2014-Apr-17 08:32N 39°33' E 002°38'0 0.0
2014-Apr-17 07:32N 39°33' E 002°38'0 0.0
2014-Apr-17 06:32N 39°33' E 002°38'0 0.0
2014-Apr-17 05:32N 39°33' E 002°38'0 0.0
2014-Apr-17 04:32N 39°33' E 002°38'0 0.0
2014-Apr-17 03:32N 39°33' E 002°38'0 0.0
2014-Apr-17 02:32N 39°33' E 002°38'0 0.0
2014-Apr-17 01:32N 39°33' E 002°38'0 0.0
2014-Apr-17 00:32N 39°33' E 002°38'0 0.0
2014-Apr-16 23:32N 39°33' E 002°38'0 0.0
2014-Apr-16 22:32N 39°33' E 002°38'0 0.0
2014-Apr-16 21:32N 39°33' E 002°38'0 0.0
2014-Apr-16 20:32N 39°33' E 002°38'0 0.0
2014-Apr-16 19:32N 39°33' E 002°38'0 0.0
2014-Apr-16 18:32N 39°33' E 002°38'0 0.0
2014-Apr-16 15:32N 39°33' E 002°38'0 0.0
2014-Apr-16 14:32N 39°33' E 002°38'0 0.0
2014-Apr-16 12:32N 39°33' E 002°38'0 0.0
2014-Apr-16 11:32N 39°33' E 002°38'0 0.0
2014-Apr-16 10:32N 39°33' E 002°38'0 0.0
2014-Apr-16 09:32N 39°33' E 002°38'0 0.0
2014-Apr-16 08:32N 39°33' E 002°38'0 0.0
2014-Apr-16 07:32N 39°33' E 002°38'0 0.0
2014-Apr-16 06:32N 39°33' E 002°38'0 0.0
2014-Apr-16 05:32N 39°33' E 002°38'0 0.0
2014-Apr-16 04:32N 39°33' E 002°38'0 0.0
2014-Apr-16 03:32N 39°33' E 002°38'0 0.0
2014-Apr-16 02:32N 39°33' E 002°38'0 0.0
2014-Apr-16 01:32N 39°33' E 002°38'0 0.0
2014-Apr-16 00:32N 39°33' E 002°38'0 0.0
2014-Apr-15 23:32N 39°33' E 002°38'0 0.0
2014-Apr-15 22:32N 39°33' E 002°38'0 0.0
2014-Apr-15 21:32N 39°33' E 002°38'0 0.0
2014-Apr-15 20:32N 39°33' E 002°38'0 0.0
2014-Apr-15 19:32N 39°33' E 002°38'0 0.0
2014-Apr-15 18:32N 39°33' E 002°38'0 0.0
2014-Apr-15 17:29N 39°33' E 002°38'0 0.0
2014-Apr-15 16:26N 39°33' E 002°38'0 0.0
2014-Apr-15 15:32N 39°33' E 002°38'0 0.0
2014-Apr-15 14:32N 39°33' E 002°38'0 0.0
2014-Apr-15 12:33N 39°33' E 002°38'0 0.0
2014-Apr-15 11:33N 39°33' E 002°38'0 0.0
2014-Apr-15 10:33N 39°33' E 002°38'0 0.0
2014-Apr-15 09:33N 39°33' E 002°38'0 0.0
2014-Apr-15 08:33N 39°33' E 002°38'0 0.0
2014-Apr-15 07:33N 39°33' E 002°38'0 0.0
2014-Apr-15 06:33N 39°33' E 002°38'0 0.0
2014-Apr-15 05:33N 39°33' E 002°38'0 0.0
2014-Apr-15 03:33N 39°33' E 002°38'0 0.0
2014-Apr-15 02:32N 39°33' E 002°38'0 0.0
2014-Apr-15 01:32N 39°33' E 002°38'0 0.0
2014-Apr-15 00:32N 39°33' E 002°38'0 0.0
2014-Apr-14 23:32N 39°33' E 002°38'0 0.0
2014-Apr-14 22:32N 39°33' E 002°38'0 0.0
2014-Apr-14 21:32N 39°33' E 002°38'0 0.0
2014-Apr-14 20:32N 39°33' E 002°38'0 0.0
2014-Apr-14 19:32N 39°33' E 002°38'0 0.0
2014-Apr-14 18:32N 39°33' E 002°38'0 0.0
2014-Apr-14 17:32N 39°33' E 002°38'0 0.0
2014-Apr-14 16:32N 39°33' E 002°38'0 0.0
2014-Apr-14 15:32N 39°33' E 002°38'0 0.0
2014-Apr-14 14:32N 39°33' E 002°38'0 0.0
2014-Apr-14 13:32N 39°33' E 002°38'0 0.0
2014-Apr-14 11:32N 39°33' E 002°38'0 0.0
2014-Apr-14 10:32N 39°33' E 002°38'0 0.0
2014-Apr-14 09:32N 39°33' E 002°38'0 0.0
2014-Apr-14 08:32N 39°33' E 002°38'0 0.0
2014-Apr-14 07:32N 39°33' E 002°38'0 0.0
2014-Apr-14 06:33N 39°33' E 002°38'0 0.0
2014-Apr-14 05:32N 39°33' E 002°38'3 0.4
2014-Apr-13 22:33N 39°30' E 002°37'1110.8
2014-Apr-13 21:33N 39°22' E 002°28'1312.6
2014-Apr-13 20:33N 39°12' E 002°18'1313.1
2014-Apr-13 19:33N 39°02' E 002°07'1313.2
2014-Apr-13 18:33N 38°52' E 001°57'1312.6
2014-Apr-13 17:33N 38°42' E 001°46'1312.8
2014-Apr-13 16:32N 38°33' E 001°35'1212.0
2014-Apr-13 15:33N 38°26' E 001°22'1212.2
2014-Apr-13 14:32N 38°18' E 001°10'1212.1
2014-Apr-13 13:33N 38°11' E 000°58'1212.4
2014-Apr-13 12:33N 38°04' E 000°45'4112.3
2014-Apr-13 09:13N 37°40' E 000°03'26811.7
2014-Apr-12 10:27N 36°00' W 005°07'1314.9
2014-Apr-12 09:34N 35°58' W 005°23'1413.4
2014-Apr-12 08:31N 35°54' W 005°40'1111.6
2014-Apr-12 07:33N 35°54' W 005°54'15212.5
2014-Apr-11 19:22N 34°58' W 008°48'  

Dump ship's entire track history

sailing weather and tide predictions

Super Servant 4 — PJPO — position and weather